createdAt,value
2024-03-09T00:00:59.303Z,24.95
2024-03-09T00:01:59.454Z,24.93
2024-03-09T00:02:59.450Z,24.93
2024-03-09T00:03:59.535Z,24.95
2024-03-09T00:04:59.633Z,24.95
2024-03-09T00:05:59.676Z,24.93
2024-03-09T00:06:59.810Z,24.92
2024-03-09T00:08:59.929Z,24.93
2024-03-09T00:09:59.999Z,24.92
2024-03-09T00:11:00.173Z,24.92
2024-03-09T00:12:00.207Z,24.92
2024-03-09T00:13:00.242Z,24.93
2024-03-09T00:14:00.373Z,24.93
2024-03-09T00:15:00.417Z,24.93
2024-03-09T00:16:00.500Z,24.93
2024-03-09T00:17:00.675Z,24.92
2024-03-09T00:18:00.721Z,24.95
2024-03-09T00:19:00.744Z,24.90
2024-03-09T00:20:00.896Z,24.93
2024-03-09T00:21:00.882Z,24.90
2024-03-09T00:22:00.967Z,24.90
2024-03-09T00:23:02.669Z,24.90
2024-03-09T00:24:01.081Z,24.93
2024-03-09T00:25:01.085Z,24.93
2024-03-09T00:26:01.131Z,24.93
2024-03-09T00:27:01.130Z,24.92
2024-03-09T00:28:01.158Z,24.92
2024-03-09T00:29:01.173Z,24.92
2024-03-09T00:30:01.161Z,24.92
2024-03-09T00:31:01.195Z,24.90
2024-03-09T00:32:01.218Z,24.92
2024-03-09T00:33:01.381Z,24.90
2024-03-09T00:34:01.237Z,24.89
2024-03-09T00:35:01.348Z,24.90
2024-03-09T00:36:01.244Z,24.92
2024-03-09T00:37:01.248Z,24.90
2024-03-09T00:38:01.579Z,24.92
2024-03-09T00:39:01.312Z,24.92
2024-03-09T00:40:01.308Z,24.90
2024-03-09T00:41:01.406Z,24.90
2024-03-09T00:42:01.369Z,24.88
2024-03-09T00:43:01.365Z,24.90
2024-03-09T00:44:01.439Z,24.89
2024-03-09T00:45:01.461Z,24.90
2024-03-09T00:46:01.419Z,24.89
2024-03-09T00:47:01.655Z,24.89
2024-03-09T00:48:01.584Z,24.89
2024-03-09T00:49:01.472Z,24.86
2024-03-09T00:50:01.563Z,24.89
2024-03-09T00:51:01.481Z,24.89
2024-03-09T00:52:01.468Z,24.88
2024-03-09T00:53:01.532Z,24.88
2024-03-09T00:54:01.473Z,24.86
2024-03-09T00:55:01.519Z,24.89
2024-03-09T00:56:01.576Z,24.89
2024-03-09T00:57:01.582Z,24.90
2024-03-09T00:58:01.536Z,24.88
2024-03-09T00:59:03.283Z,24.86
2024-03-09T01:00:01.539Z,24.86
2024-03-09T01:01:01.605Z,24.89
2024-03-09T01:02:01.712Z,24.89
2024-03-09T01:03:01.580Z,24.86
2024-03-09T01:04:01.557Z,24.89
2024-03-09T01:05:01.815Z,24.88
2024-03-09T01:06:01.569Z,24.89
2024-03-09T01:07:01.591Z,24.86
2024-03-09T01:08:01.618Z,24.88
2024-03-09T01:09:01.613Z,24.86
2024-03-09T01:10:01.676Z,24.85
2024-03-09T01:11:01.894Z,24.88
2024-03-09T01:12:01.822Z,24.85
2024-03-09T01:13:01.779Z,24.83
2024-03-09T01:14:01.945Z,24.86
2024-03-09T01:15:01.902Z,24.86
2024-03-09T01:16:01.977Z,24.82
2024-03-09T01:17:02.071Z,24.85
2024-03-09T01:18:02.206Z,24.88
2024-03-09T01:19:02.230Z,24.83
2024-03-09T01:20:02.496Z,24.86
2024-03-09T01:21:02.415Z,24.85
2024-03-09T01:22:02.520Z,24.83
2024-03-09T01:23:02.669Z,24.85
2024-03-09T01:24:02.699Z,24.83
2024-03-09T01:25:02.749Z,24.85
2024-03-09T01:26:02.886Z,24.85
2024-03-09T01:27:02.926Z,24.85
2024-03-09T01:28:03.011Z,24.83
2024-03-09T01:29:03.165Z,24.82
2024-03-09T01:30:03.374Z,24.83
2024-03-09T01:31:03.248Z,24.85
2024-03-09T01:32:03.495Z,24.85
2024-03-09T01:33:03.496Z,24.83
2024-03-09T01:34:03.557Z,24.85
2024-03-09T01:35:04.014Z,24.82
2024-03-09T01:36:03.716Z,24.82
2024-03-09T01:37:03.775Z,24.82
2024-03-09T01:38:03.888Z,24.82
2024-03-09T01:39:03.922Z,24.81
2024-03-09T01:40:04.005Z,24.82
2024-03-09T01:41:04.199Z,24.83
2024-03-09T01:42:04.181Z,24.83
2024-03-09T01:43:04.290Z,24.82
2024-03-09T01:44:04.483Z,24.82
2024-03-09T01:45:04.453Z,24.82
2024-03-09T01:46:04.555Z,24.81
2024-03-09T01:47:04.686Z,24.82
2024-03-09T01:48:04.749Z,24.81
2024-03-09T01:49:04.804Z,24.83
2024-03-09T01:50:05.046Z,24.83
2024-03-09T01:51:04.952Z,24.82
2024-03-09T01:52:05.113Z,24.81
2024-03-09T01:53:05.196Z,24.82
2024-03-09T01:54:05.244Z,24.81
2024-03-09T01:55:05.460Z,24.81
2024-03-09T01:56:05.451Z,24.82
2024-03-09T01:57:05.476Z,24.79
2024-03-09T01:58:05.562Z,24.82
2024-03-09T01:59:05.653Z,24.81
2024-03-09T02:00:05.735Z,24.83
2024-03-09T02:01:05.890Z,24.81
2024-03-09T02:02:05.962Z,24.81
2024-03-09T02:03:06.015Z,24.79
2024-03-09T02:04:06.092Z,24.81
2024-03-09T02:05:06.236Z,24.81
2024-03-09T02:06:06.235Z,24.81
2024-03-09T02:07:06.349Z,24.81
2024-03-09T02:08:06.495Z,24.82
2024-03-09T02:09:06.509Z,24.81
2024-03-09T02:10:06.624Z,24.82
2024-03-09T02:11:06.900Z,24.79
2024-03-09T02:12:06.823Z,24.79
2024-03-09T02:13:06.894Z,24.79
2024-03-09T02:14:07.026Z,24.82
2024-03-09T02:15:07.101Z,24.78
2024-03-09T02:16:07.215Z,24.79
2024-03-09T02:17:07.388Z,24.81
2024-03-09T02:18:07.389Z,24.82
2024-03-09T02:19:07.418Z,24.79
2024-03-09T02:20:07.577Z,24.78
2024-03-09T02:21:07.602Z,24.78
2024-03-09T02:22:07.700Z,24.82
2024-03-09T02:23:07.849Z,24.78
2024-03-09T02:24:07.907Z,24.79
2024-03-09T02:25:07.942Z,24.81
2024-03-09T02:26:08.135Z,24.79
2024-03-09T02:27:08.131Z,24.79
2024-03-09T02:28:08.198Z,24.81
2024-03-09T02:29:08.347Z,24.78
2024-03-09T02:30:08.391Z,24.81
2024-03-09T02:31:08.468Z,24.79
2024-03-09T02:32:09.040Z,24.78
2024-03-09T02:33:08.656Z,24.78
2024-03-09T02:34:08.749Z,24.77
2024-03-09T02:35:08.854Z,24.81
2024-03-09T02:36:08.885Z,24.79
2024-03-09T02:37:08.942Z,24.77
2024-03-09T02:38:09.082Z,24.78
2024-03-09T02:39:09.152Z,24.78
2024-03-09T02:40:09.245Z,24.78
2024-03-09T02:41:09.394Z,24.77
2024-03-09T02:42:09.411Z,24.77
2024-03-09T02:43:09.579Z,24.78
2024-03-09T02:44:09.644Z,24.79
2024-03-09T02:45:09.725Z,24.77
2024-03-09T02:46:09.785Z,24.79
2024-03-09T02:47:09.942Z,24.78
2024-03-09T02:48:09.978Z,24.78
2024-03-09T02:49:10.060Z,24.77
2024-03-09T02:50:10.252Z,24.75
2024-03-09T02:51:10.248Z,24.77
2024-03-09T02:52:10.632Z,24.78
2024-03-09T02:53:10.511Z,24.77
2024-03-09T02:54:10.509Z,24.79
2024-03-09T02:55:10.614Z,24.78
2024-03-09T02:56:10.752Z,24.78
2024-03-09T02:57:10.778Z,24.77
2024-03-09T02:58:10.866Z,24.77
2024-03-09T02:59:11.210Z,24.75
2024-03-09T03:00:11.150Z,24.77
2024-03-09T03:01:11.172Z,24.75
2024-03-09T03:02:11.244Z,24.75
2024-03-09T03:03:11.354Z,24.77
2024-03-09T03:04:11.430Z,24.77
2024-03-09T03:05:11.585Z,24.78
2024-03-09T03:06:11.627Z,24.77
2024-03-09T03:07:11.725Z,24.75
2024-03-09T03:08:11.846Z,24.75
2024-03-09T03:09:11.909Z,24.75
2024-03-09T03:10:11.978Z,24.75
2024-03-09T03:11:12.164Z,24.77
2024-03-09T03:12:12.141Z,24.75
2024-03-09T03:13:12.264Z,24.77
2024-03-09T03:14:12.848Z,24.75
2024-03-09T03:15:12.444Z,24.77
2024-03-09T03:16:12.536Z,24.75
2024-03-09T03:17:12.681Z,24.75
2024-03-09T03:18:12.787Z,24.75
2024-03-09T03:19:12.828Z,24.75
2024-03-09T03:20:12.961Z,24.75
2024-03-09T03:21:13.011Z,24.74
2024-03-09T03:22:13.115Z,24.77
2024-03-09T03:23:13.235Z,24.75
2024-03-09T03:24:13.284Z,24.78
2024-03-09T03:25:13.377Z,24.77
2024-03-09T03:26:13.523Z,24.74
2024-03-09T03:27:13.596Z,24.75
2024-03-09T03:28:13.646Z,24.75
2024-03-09T03:29:13.824Z,24.77
2024-03-09T03:30:13.834Z,24.75
2024-03-09T03:31:13.907Z,24.74
2024-03-09T03:32:14.085Z,24.74
2024-03-09T03:33:14.105Z,24.74
2024-03-09T03:34:14.181Z,24.74
2024-03-09T03:35:14.518Z,24.74
2024-03-09T03:36:14.407Z,24.75
2024-03-09T03:37:14.486Z,24.74
2024-03-09T03:38:14.623Z,24.72
2024-03-09T03:39:15.079Z,24.74
2024-03-09T03:40:14.769Z,24.74
2024-03-09T03:41:14.905Z,24.74
2024-03-09T03:42:14.944Z,24.74
2024-03-09T03:43:15.049Z,24.74
2024-03-09T03:44:15.168Z,24.74
2024-03-09T03:45:15.256Z,24.74
2024-03-09T03:46:15.429Z,24.74
2024-03-09T03:47:15.497Z,24.74
2024-03-09T03:48:15.596Z,24.74
2024-03-09T03:49:15.610Z,24.72
2024-03-09T03:50:15.738Z,24.74
2024-03-09T03:51:15.903Z,24.72
2024-03-09T03:52:15.918Z,24.72
2024-03-09T03:53:16.134Z,24.74
2024-03-09T03:54:16.101Z,24.74
2024-03-09T03:55:16.206Z,24.74
2024-03-09T03:56:16.326Z,24.72
2024-03-09T03:57:16.368Z,24.74
2024-03-09T03:58:16.505Z,24.74
2024-03-09T03:59:16.593Z,24.71
2024-03-09T04:00:16.660Z,24.71
2024-03-09T04:01:16.846Z,24.71
2024-03-09T04:02:16.916Z,24.71
2024-03-09T04:03:17.004Z,24.72
2024-03-09T04:04:17.040Z,24.71
2024-03-09T04:05:17.197Z,24.71
2024-03-09T04:06:17.244Z,24.69
2024-03-09T04:07:17.354Z,24.69
2024-03-09T04:08:17.438Z,24.72
2024-03-09T04:09:17.549Z,24.71
2024-03-09T04:10:17.661Z,24.72
2024-03-09T04:11:17.849Z,24.68
2024-03-09T04:12:17.907Z,24.69
2024-03-09T04:13:17.955Z,24.71
2024-03-09T04:14:18.086Z,24.69
2024-03-09T04:15:18.205Z,24.69
2024-03-09T04:16:18.205Z,24.71
2024-03-09T04:17:18.309Z,24.71
2024-03-09T04:18:18.437Z,24.71
2024-03-09T04:19:18.490Z,24.69
2024-03-09T04:20:25.686Z,24.67
2024-03-09T04:21:25.677Z,24.65
2024-03-09T04:22:25.765Z,24.69
2024-03-09T04:23:25.681Z,24.68
2024-03-09T04:24:25.649Z,24.69
2024-03-09T04:25:25.662Z,24.69
2024-03-09T04:26:25.656Z,24.69
2024-03-09T04:27:25.649Z,24.71
2024-03-09T04:28:25.656Z,24.69
2024-03-09T04:29:25.679Z,24.71
2024-03-09T04:30:25.669Z,24.71
2024-03-09T04:31:32.890Z,24.67
2024-03-09T04:32:32.878Z,24.67
2024-03-09T04:33:32.872Z,24.67
2024-03-09T04:34:32.907Z,24.67
2024-03-09T04:35:32.899Z,24.67
2024-03-09T04:36:32.883Z,24.68
2024-03-09T04:37:32.936Z,24.67
2024-03-09T04:38:32.948Z,24.68
2024-03-09T04:39:33.024Z,24.68
2024-03-09T04:40:32.963Z,24.72
2024-03-09T04:41:32.972Z,24.69
2024-03-09T04:42:32.989Z,24.69
2024-03-09T04:43:33.034Z,24.68
2024-03-09T04:44:32.990Z,24.67
2024-03-09T04:45:33.034Z,24.67
2024-03-09T04:46:33.008Z,24.68
2024-03-09T04:47:33.082Z,24.68
2024-03-09T04:48:33.063Z,24.69
2024-03-09T04:49:33.098Z,24.69
2024-03-09T04:50:33.083Z,24.68
2024-03-09T04:51:33.092Z,24.68
2024-03-09T04:52:33.151Z,24.69
2024-03-09T04:53:33.212Z,24.67
2024-03-09T04:54:33.103Z,24.69
2024-03-09T04:55:33.124Z,24.67
2024-03-09T04:56:33.112Z,24.68
2024-03-09T04:57:33.122Z,24.68
2024-03-09T04:58:33.182Z,24.68
2024-03-09T04:59:33.167Z,24.68
2024-03-09T05:00:33.196Z,24.65
2024-03-09T05:01:33.219Z,24.67
2024-03-09T05:02:33.214Z,24.65
2024-03-09T05:03:33.217Z,24.67
2024-03-09T05:04:33.271Z,24.64
2024-03-09T05:05:33.234Z,24.65
2024-03-09T05:06:33.214Z,24.67
2024-03-09T05:07:33.350Z,24.65
2024-03-09T05:08:33.358Z,24.64
2024-03-09T05:09:33.442Z,24.65
2024-03-09T05:10:33.638Z,24.64
2024-03-09T05:11:33.697Z,24.65
2024-03-09T05:12:33.702Z,24.65
2024-03-09T05:13:33.822Z,24.64
2024-03-09T05:14:33.905Z,24.62
2024-03-09T05:15:34.553Z,24.68
2024-03-09T05:16:34.666Z,24.67
2024-03-09T05:17:34.154Z,24.64
2024-03-09T05:18:34.333Z,24.65
2024-03-09T05:19:34.333Z,24.65
2024-03-09T05:20:34.375Z,24.65
2024-03-09T05:21:34.485Z,24.65
2024-03-09T05:22:34.619Z,24.65
2024-03-09T05:23:34.648Z,24.65
2024-03-09T05:24:34.739Z,24.64
2024-03-09T05:25:34.836Z,24.65
2024-03-09T05:26:34.920Z,24.65
2024-03-09T05:27:35.024Z,24.64
2024-03-09T05:28:35.111Z,24.64
2024-03-09T05:29:35.156Z,24.65
2024-03-09T05:31:29.918Z,24.59
2024-03-09T05:32:29.879Z,24.61
2024-03-09T05:33:29.821Z,24.61
2024-03-09T05:34:29.872Z,24.61
2024-03-09T05:35:30.019Z,24.59
2024-03-09T05:36:29.851Z,24.62
2024-03-09T05:37:29.866Z,24.62
2024-03-09T05:38:29.856Z,24.64
2024-03-09T05:39:29.876Z,24.59
2024-03-09T05:40:29.908Z,24.62
2024-03-09T05:41:29.944Z,24.61
2024-03-09T05:42:29.910Z,24.61
2024-03-09T05:43:29.990Z,24.61
2024-03-09T05:44:29.934Z,24.59
2024-03-09T05:45:29.922Z,24.61
2024-03-09T05:46:32.807Z,24.62
2024-03-09T05:47:29.977Z,24.62
2024-03-09T05:48:29.967Z,24.62
2024-03-09T05:49:30.052Z,24.61
2024-03-09T05:50:30.172Z,24.59
2024-03-09T05:51:30.023Z,24.61
2024-03-09T05:52:30.041Z,24.62
2024-03-09T05:53:30.038Z,24.61
2024-03-09T05:54:30.037Z,24.61
2024-03-09T05:55:30.223Z,24.61
2024-03-09T05:56:30.060Z,24.61
2024-03-09T05:57:30.034Z,24.62
2024-03-09T05:58:30.088Z,24.61
2024-03-09T05:59:30.066Z,24.61
2024-03-09T06:00:31.208Z,24.62
2024-03-09T06:01:30.180Z,24.61
2024-03-09T06:02:30.107Z,24.61
2024-03-09T06:03:30.115Z,24.59
2024-03-09T06:04:30.158Z,24.61
2024-03-09T06:05:31.261Z,24.61
2024-03-09T06:06:30.136Z,24.61
2024-03-09T06:07:30.208Z,24.62
2024-03-09T06:08:30.169Z,24.59
2024-03-09T06:09:30.150Z,24.59
2024-03-09T06:10:30.354Z,24.61
2024-03-09T06:11:30.271Z,24.64
2024-03-09T06:12:30.281Z,24.64
2024-03-09T06:13:30.236Z,24.62
2024-03-09T06:14:30.201Z,24.64
2024-03-09T06:15:30.231Z,24.59
2024-03-09T06:16:30.205Z,24.62
2024-03-09T06:17:30.231Z,24.62
2024-03-09T06:18:30.227Z,24.62
2024-03-09T06:19:30.296Z,24.64
2024-03-09T06:20:30.782Z,24.61
2024-03-09T06:21:30.369Z,24.59
2024-03-09T06:22:30.438Z,24.64
2024-03-09T06:23:30.441Z,24.59
2024-03-09T06:24:30.480Z,24.64
2024-03-09T06:25:30.895Z,24.62
2024-03-09T06:26:30.598Z,24.64
2024-03-09T06:27:30.732Z,24.61
2024-03-09T06:28:30.834Z,24.61
2024-03-09T06:29:30.937Z,24.64
2024-03-09T06:30:32.565Z,24.64
2024-03-09T06:31:31.086Z,24.65
2024-03-09T06:32:31.097Z,24.65
2024-03-09T06:33:31.198Z,24.62
2024-03-09T06:34:31.328Z,24.62
2024-03-09T06:35:31.428Z,24.65
2024-03-09T06:36:31.541Z,24.64
2024-03-09T06:37:31.568Z,24.64
2024-03-09T06:38:31.644Z,24.61
2024-03-09T06:39:31.737Z,24.62
2024-03-09T06:40:31.893Z,24.62
2024-03-09T06:41:31.951Z,24.62
2024-03-09T06:42:32.011Z,24.61
2024-03-09T06:43:32.116Z,24.64
2024-03-09T06:44:32.148Z,24.61
2024-03-09T06:45:32.238Z,24.64
2024-03-09T06:46:32.384Z,24.64
2024-03-09T06:47:32.499Z,24.64
2024-03-09T06:48:32.534Z,24.62
2024-03-09T06:49:32.660Z,24.64
2024-03-09T06:50:32.833Z,24.64
2024-03-09T06:51:32.834Z,24.64
2024-03-09T06:52:32.924Z,24.62
2024-03-09T06:53:33.027Z,24.64
2024-03-09T06:54:33.104Z,24.67
2024-03-09T06:55:33.520Z,24.64
2024-03-09T06:56:33.278Z,24.62
2024-03-09T06:57:33.387Z,24.64
2024-03-09T06:58:33.522Z,24.64
2024-03-09T06:59:33.566Z,24.64
2024-03-09T07:00:33.633Z,24.62
2024-03-09T07:01:33.768Z,24.65
2024-03-09T07:02:33.803Z,24.65
2024-03-09T07:03:33.884Z,24.64
2024-03-09T07:04:34.023Z,24.67
2024-03-09T07:05:34.103Z,24.62
2024-03-09T07:06:34.226Z,24.64
2024-03-09T07:07:34.288Z,24.65
2024-03-09T07:08:34.417Z,24.65
2024-03-09T07:09:34.458Z,24.67
2024-03-09T07:10:34.611Z,24.65
2024-03-09T07:11:34.613Z,24.64
2024-03-09T07:12:34.774Z,24.67
2024-03-09T07:13:34.810Z,24.67
2024-03-09T07:14:34.848Z,24.64
2024-03-09T07:15:34.946Z,24.64
2024-03-09T07:16:35.070Z,24.68
2024-03-09T07:17:35.104Z,24.69
2024-03-09T07:18:35.205Z,24.65
2024-03-09T07:19:35.321Z,24.65
2024-03-09T07:20:35.454Z,24.65
2024-03-09T07:21:35.549Z,24.67
2024-03-09T07:22:35.615Z,24.67
2024-03-09T07:23:35.610Z,24.69
2024-03-09T07:24:35.702Z,24.67
2024-03-09T07:25:35.827Z,24.69
2024-03-09T07:26:35.868Z,24.68
2024-03-09T07:27:35.960Z,24.72
2024-03-09T07:28:36.076Z,24.74
2024-03-09T07:29:36.126Z,24.75
2024-03-09T07:30:36.188Z,24.74
2024-03-09T07:31:36.302Z,24.77
2024-03-09T07:32:36.387Z,24.79
2024-03-09T07:33:36.446Z,24.79
2024-03-09T07:34:36.554Z,24.82
2024-03-09T07:35:36.610Z,25.28
2024-03-09T07:36:36.692Z,26.45
2024-03-09T07:37:36.827Z,27.64
2024-03-09T07:38:36.865Z,28.55
2024-03-09T07:39:37.037Z,29.41
2024-03-09T07:40:37.064Z,30.13
2024-03-09T07:41:37.108Z,30.75
2024-03-09T07:42:37.195Z,31.35
2024-03-09T07:43:37.941Z,31.93
2024-03-09T07:44:37.224Z,32.47
2024-03-09T07:45:37.369Z,32.90
2024-03-09T07:46:37.217Z,33.25
2024-03-09T07:47:37.252Z,33.46
2024-03-09T07:48:37.217Z,33.65
2024-03-09T07:49:37.234Z,33.56
2024-03-09T07:50:37.220Z,32.85
2024-03-09T07:51:37.189Z,31.72
2024-03-09T07:52:37.244Z,30.87
2024-03-09T07:53:37.238Z,30.13
2024-03-09T07:54:37.348Z,29.57
2024-03-09T07:55:37.470Z,29.09
2024-03-09T07:56:37.468Z,28.63
2024-03-09T07:57:37.464Z,28.50
2024-03-09T07:58:37.670Z,28.58
2024-03-09T07:59:37.627Z,28.56
2024-03-09T08:00:37.724Z,28.45
2024-03-09T08:01:37.859Z,28.30
2024-03-09T08:02:37.874Z,28.13
2024-03-09T08:03:37.933Z,27.97
2024-03-09T08:04:38.001Z,27.83
2024-03-09T08:05:38.059Z,27.68
2024-03-09T08:06:38.166Z,27.57
2024-03-09T08:07:38.260Z,27.46
2024-03-09T08:08:38.312Z,27.36
2024-03-09T08:09:38.400Z,27.24
2024-03-09T08:10:38.584Z,27.17
2024-03-09T08:11:38.669Z,27.06
2024-03-09T08:12:38.761Z,26.96
2024-03-09T08:13:38.866Z,26.86
2024-03-09T08:14:38.952Z,26.81
2024-03-09T08:15:39.024Z,26.75
2024-03-09T08:16:39.254Z,26.66
2024-03-09T08:17:39.309Z,26.58
2024-03-09T08:18:39.414Z,26.51
2024-03-09T08:19:39.496Z,26.46
2024-03-09T08:20:39.709Z,26.39
2024-03-09T08:21:39.725Z,26.35
2024-03-09T08:22:39.814Z,26.31
2024-03-09T08:23:39.861Z,26.28
2024-03-09T08:24:39.984Z,26.27
2024-03-09T08:25:40.184Z,26.22
2024-03-09T08:26:40.144Z,26.21
2024-03-09T08:27:40.254Z,26.15
2024-03-09T08:28:40.373Z,26.17
2024-03-09T08:29:40.399Z,26.15
2024-03-09T08:30:40.525Z,26.15
2024-03-09T08:31:40.606Z,26.11
2024-03-09T08:32:40.979Z,26.11
2024-03-09T08:33:40.758Z,26.11
2024-03-09T08:34:41.089Z,26.08
2024-03-09T08:35:40.980Z,26.09
2024-03-09T08:36:41.042Z,26.09
2024-03-09T08:37:41.160Z,26.09
2024-03-09T08:38:41.257Z,26.09
2024-03-09T08:39:43.655Z,26.08
2024-03-09T08:40:41.575Z,26.11
2024-03-09T08:41:41.518Z,26.11
2024-03-09T08:42:41.583Z,26.11
2024-03-09T08:43:41.631Z,26.12
2024-03-09T08:44:41.654Z,26.14
2024-03-09T08:45:41.706Z,26.12
2024-03-09T08:46:41.767Z,26.14
2024-03-09T08:47:41.779Z,26.14
2024-03-09T08:48:41.790Z,26.15
2024-03-09T08:49:41.856Z,26.17
2024-03-09T08:50:41.925Z,26.17
2024-03-09T08:51:41.924Z,26.18
2024-03-09T08:52:42.069Z,26.22
2024-03-09T08:53:42.102Z,26.21
2024-03-09T08:54:42.207Z,26.24
2024-03-09T08:55:42.381Z,26.22
2024-03-09T08:56:42.435Z,26.25
2024-03-09T08:57:42.532Z,26.28
2024-03-09T08:58:42.764Z,26.28
2024-03-09T08:59:42.790Z,26.30
2024-03-09T09:00:42.929Z,26.30
2024-03-09T09:01:42.966Z,26.35
2024-03-09T09:02:43.048Z,26.35
2024-03-09T09:03:43.160Z,26.38
2024-03-09T09:04:43.301Z,26.44
2024-03-09T09:05:43.412Z,26.44
2024-03-09T09:06:43.524Z,26.46
2024-03-09T09:07:43.642Z,26.48
2024-03-09T09:08:43.772Z,26.55
2024-03-09T09:09:43.814Z,26.55
2024-03-09T09:10:44.022Z,26.58
2024-03-09T09:11:44.116Z,26.62
2024-03-09T09:12:44.165Z,26.63
2024-03-09T09:13:44.281Z,26.65
2024-03-09T09:14:44.367Z,26.69
2024-03-09T09:15:44.464Z,26.69
2024-03-09T09:16:44.568Z,26.75
2024-03-09T09:17:44.688Z,26.76
2024-03-09T09:18:44.734Z,26.78
2024-03-09T09:19:44.845Z,26.82
2024-03-09T09:20:44.906Z,26.83
2024-03-09T09:21:45.030Z,26.86
2024-03-09T09:22:45.252Z,26.86
2024-03-09T09:23:45.203Z,26.89
2024-03-09T09:24:45.293Z,26.93
2024-03-09T09:25:45.428Z,26.95
2024-03-09T09:26:45.470Z,26.99
2024-03-09T09:27:45.732Z,26.99
2024-03-09T09:28:45.621Z,27.03
2024-03-09T09:29:45.687Z,27.04
2024-03-09T09:30:45.781Z,27.07
2024-03-09T09:31:45.877Z,27.07
2024-03-09T09:32:45.964Z,27.11
2024-03-09T09:33:46.010Z,27.13
2024-03-09T09:34:46.162Z,27.16
2024-03-09T09:35:46.162Z,27.17
2024-03-09T09:36:46.270Z,27.17
2024-03-09T09:37:46.339Z,27.17
2024-03-09T09:38:46.372Z,27.18
2024-03-09T09:39:46.459Z,27.18
2024-03-09T09:40:46.520Z,27.18
2024-03-09T09:41:46.597Z,27.18
2024-03-09T09:42:46.628Z,27.22
2024-03-09T09:43:46.791Z,27.22
2024-03-09T09:44:46.808Z,27.18
2024-03-09T09:45:46.934Z,27.24
2024-03-09T09:46:47.000Z,27.27
2024-03-09T09:47:47.049Z,27.27
2024-03-09T09:48:47.078Z,27.32
2024-03-09T09:49:47.149Z,27.33
2024-03-09T09:50:47.198Z,27.34
2024-03-09T09:51:49.134Z,27.36
2024-03-09T09:52:47.340Z,27.36
2024-03-09T09:53:47.323Z,27.36
2024-03-09T09:54:47.317Z,27.38
2024-03-09T09:55:47.349Z,27.40
2024-03-09T09:56:47.304Z,27.41
2024-03-09T09:57:47.348Z,27.44
2024-03-09T09:58:47.419Z,27.44
2024-03-09T09:59:47.412Z,27.46
2024-03-09T10:00:47.567Z,27.47
2024-03-09T10:01:47.579Z,27.47
2024-03-09T10:02:51.042Z,27.48
2024-03-09T10:03:47.581Z,27.50
2024-03-09T10:04:47.595Z,27.51
2024-03-09T10:05:47.558Z,27.53
2024-03-09T10:06:47.542Z,27.54
2024-03-09T10:07:47.550Z,27.54
2024-03-09T10:08:47.524Z,27.51
2024-03-09T10:09:47.530Z,27.54
2024-03-09T10:10:47.578Z,27.57
2024-03-09T10:11:47.631Z,27.54
2024-03-09T10:12:47.486Z,27.57
2024-03-09T10:13:47.490Z,27.56
2024-03-09T10:14:47.424Z,27.57
2024-03-09T10:15:47.438Z,27.58
2024-03-09T10:16:47.464Z,27.57
2024-03-09T10:17:47.464Z,27.58
2024-03-09T10:18:47.420Z,27.58
2024-03-09T10:19:47.498Z,27.60
2024-03-09T10:20:47.425Z,27.61
2024-03-09T10:21:47.397Z,27.58
2024-03-09T10:22:47.372Z,27.58
2024-03-09T10:23:47.358Z,27.61
2024-03-09T10:24:47.333Z,27.58
2024-03-09T10:25:47.392Z,27.60
2024-03-09T10:26:47.447Z,27.61
2024-03-09T10:27:47.486Z,27.60
2024-03-09T10:28:47.527Z,27.61
2024-03-09T10:29:47.557Z,27.61
2024-03-09T10:30:47.569Z,27.60
2024-03-09T10:31:47.649Z,27.61
2024-03-09T10:32:47.711Z,27.60
2024-03-09T10:33:47.741Z,27.61
2024-03-09T10:34:47.836Z,27.62
2024-03-09T10:35:48.205Z,27.60
2024-03-09T10:36:47.858Z,27.60
2024-03-09T10:37:47.870Z,27.56
2024-03-09T10:38:47.915Z,27.56
2024-03-09T10:39:47.974Z,27.57
2024-03-09T10:40:48.017Z,27.57
2024-03-09T10:41:47.993Z,27.57
2024-03-09T10:42:48.238Z,27.60
2024-03-09T10:43:48.025Z,27.57
2024-03-09T10:44:48.045Z,27.54
2024-03-09T10:45:48.083Z,27.56
2024-03-09T10:46:48.131Z,27.56
2024-03-09T10:47:48.158Z,27.56
2024-03-09T10:48:48.158Z,27.56
2024-03-09T10:49:48.209Z,27.57
2024-03-09T10:50:48.247Z,27.53
2024-03-09T10:51:48.210Z,27.54
2024-03-09T10:52:48.287Z,27.54
2024-03-09T10:53:48.311Z,27.51
2024-03-09T10:54:48.310Z,27.56
2024-03-09T10:55:48.412Z,27.54
2024-03-09T10:56:49.226Z,27.56
2024-03-09T10:57:48.369Z,27.56
2024-03-09T10:58:48.390Z,27.56
2024-03-09T10:59:48.434Z,27.56
2024-03-09T11:00:48.438Z,27.54
2024-03-09T11:01:48.551Z,27.56
2024-03-09T11:02:48.514Z,27.54
2024-03-09T11:03:48.527Z,27.56
2024-03-09T11:04:48.658Z,27.56
2024-03-09T11:05:48.578Z,27.57
2024-03-09T11:06:48.649Z,27.56
2024-03-09T11:07:48.674Z,27.57
2024-03-09T11:08:48.674Z,27.57
2024-03-09T11:09:52.111Z,27.58
2024-03-09T11:10:48.780Z,27.58
2024-03-09T11:11:48.828Z,27.60
2024-03-09T11:12:48.733Z,27.57
2024-03-09T11:13:48.817Z,27.58
2024-03-09T11:14:48.720Z,27.57
2024-03-09T11:15:50.355Z,27.58
2024-03-09T11:16:48.764Z,27.57
2024-03-09T11:17:48.728Z,27.58
2024-03-09T11:18:48.700Z,27.60
2024-03-09T11:19:48.687Z,27.58
2024-03-09T11:20:48.680Z,27.61
2024-03-09T11:21:51.934Z,27.61
2024-03-09T11:22:48.818Z,27.62
2024-03-09T11:23:48.710Z,27.64
2024-03-09T11:24:48.684Z,27.62
2024-03-09T11:25:48.770Z,27.64
2024-03-09T11:26:48.694Z,27.62
2024-03-09T11:27:51.147Z,27.61
2024-03-09T11:28:48.713Z,27.64
2024-03-09T11:29:48.662Z,27.65
2024-03-09T11:30:48.691Z,27.62
2024-03-09T11:31:48.677Z,27.64
2024-03-09T11:32:48.718Z,27.62
2024-03-09T11:33:51.812Z,27.64
2024-03-09T11:34:48.663Z,27.64
2024-03-09T11:35:48.680Z,27.62
2024-03-09T11:36:48.693Z,27.65
2024-03-09T11:37:48.673Z,27.62
2024-03-09T11:38:48.661Z,27.64
2024-03-09T11:39:50.819Z,27.61
2024-03-09T11:40:48.709Z,27.64
2024-03-09T11:41:48.674Z,27.61
2024-03-09T11:42:48.661Z,27.61
2024-03-09T11:43:48.677Z,27.61
2024-03-09T11:44:48.648Z,27.58
2024-03-09T11:45:48.654Z,27.58
2024-03-09T11:46:48.702Z,27.62
2024-03-09T11:47:48.685Z,27.60
2024-03-09T11:48:48.628Z,27.60
2024-03-09T11:49:48.637Z,27.56
2024-03-09T11:50:48.624Z,27.61
2024-03-09T11:51:51.275Z,27.57
2024-03-09T11:52:48.646Z,27.61
2024-03-09T11:53:48.567Z,27.60
2024-03-09T11:54:48.581Z,27.60
2024-03-09T11:55:48.625Z,27.60
2024-03-09T11:56:48.582Z,27.58
2024-03-09T11:57:51.447Z,27.58
2024-03-09T11:58:48.565Z,27.60
2024-03-09T11:59:48.564Z,27.58
2024-03-09T12:00:48.554Z,27.60
2024-03-09T12:01:48.574Z,27.60
2024-03-09T12:02:48.520Z,27.61
2024-03-09T12:03:48.544Z,27.58
2024-03-09T12:04:48.541Z,27.58
2024-03-09T12:05:48.528Z,27.60
2024-03-09T12:06:48.501Z,27.60
2024-03-09T12:07:48.532Z,27.60
2024-03-09T12:08:48.505Z,27.57
2024-03-09T12:09:48.512Z,27.56
2024-03-09T12:10:48.568Z,27.58
2024-03-09T12:11:48.773Z,27.57
2024-03-09T12:12:48.501Z,27.57
2024-03-09T12:13:48.528Z,27.57
2024-03-09T12:14:48.645Z,27.57
2024-03-09T12:15:48.502Z,27.60
2024-03-09T12:16:48.540Z,27.60
2024-03-09T12:17:48.543Z,27.61
2024-03-09T12:18:48.490Z,27.56
2024-03-09T12:19:48.529Z,27.57
2024-03-09T12:20:52.457Z,27.58
2024-03-09T12:21:49.556Z,27.60
2024-03-09T12:22:48.496Z,27.62
2024-03-09T12:23:48.462Z,27.61
2024-03-09T12:24:48.446Z,27.61
2024-03-09T12:25:48.519Z,27.61
2024-03-09T12:26:48.498Z,27.58
2024-03-09T12:27:48.470Z,27.61
2024-03-09T12:28:48.550Z,27.58
2024-03-09T12:29:48.483Z,27.60
2024-03-09T12:30:48.488Z,27.61
2024-03-09T12:31:48.554Z,27.62
2024-03-09T12:32:48.709Z,27.62
2024-03-09T12:33:48.763Z,27.62
2024-03-09T12:34:48.892Z,27.62
2024-03-09T12:35:48.905Z,27.62
2024-03-09T12:36:49.010Z,27.65
2024-03-09T12:37:49.090Z,27.65
2024-03-09T12:38:49.179Z,27.65
2024-03-09T12:39:49.289Z,27.67
2024-03-09T12:40:49.413Z,27.64
2024-03-09T12:41:49.445Z,27.64
2024-03-09T12:42:49.549Z,27.65
2024-03-09T12:43:49.671Z,27.67
2024-03-09T12:44:49.687Z,27.65
2024-03-09T12:45:49.780Z,27.64
2024-03-09T12:46:49.999Z,27.65
2024-03-09T12:47:49.910Z,27.64
2024-03-09T12:48:50.011Z,27.61
2024-03-09T12:49:50.070Z,27.65
2024-03-09T12:50:50.169Z,27.62
2024-03-09T12:51:50.608Z,27.61
2024-03-09T12:52:50.274Z,27.61
2024-03-09T12:53:50.273Z,27.62
2024-03-09T12:54:50.305Z,27.62
2024-03-09T12:55:50.336Z,27.64